sensor_id;sensor_type;location;lat;lon;timestamp;P1;durP1;ratioP1;P2;durP2;ratioP2
27684;SDS011;46113;50.130;8.526;2023-04-16T17:53:28;11.30;;;7.35;;
27684;SDS011;46113;50.130;8.526;2023-04-16T18:01:32;10.30;;;7.57;;
27684;SDS011;46113;50.130;8.526;2023-04-16T18:03:59;10.68;;;7.53;;
27684;SDS011;46113;50.130;8.526;2023-04-16T18:06:27;13.90;;;7.95;;
27684;SDS011;46113;50.130;8.526;2023-04-16T18:08:55;11.27;;;8.02;;
27684;SDS011;46113;50.130;8.526;2023-04-16T18:11:22;11.70;;;8.23;;
27684;SDS011;46113;50.130;8.526;2023-04-16T18:13:49;12.73;;;7.72;;
27684;SDS011;46113;50.130;8.526;2023-04-16T18:16:19;12.52;;;8.00;;
27684;SDS011;46113;50.130;8.526;2023-04-16T18:18:46;12.70;;;9.13;;
27684;SDS011;46113;50.130;8.526;2023-04-16T18:21:13;13.40;;;9.48;;
27684;SDS011;46113;50.130;8.526;2023-04-16T18:23:40;15.82;;;10.18;;
27684;SDS011;46113;50.130;8.526;2023-04-16T18:26:09;14.75;;;9.88;;
27684;SDS011;46113;50.130;8.526;2023-04-16T18:28:38;14.02;;;8.73;;
27684;SDS011;46113;50.130;8.526;2023-04-16T18:31:04;18.08;;;12.10;;
27684;SDS011;46113;50.130;8.526;2023-04-16T18:33:33;15.88;;;10.80;;
27684;SDS011;46113;50.130;8.526;2023-04-16T18:36:20;23.45;;;9.80;;
27684;SDS011;46113;50.130;8.526;2023-04-16T18:38:49;11.55;;;8.75;;
27684;SDS011;46113;50.130;8.526;2023-04-16T18:41:36;12.88;;;8.90;;
27684;SDS011;46113;50.130;8.526;2023-04-16T18:44:03;13.57;;;9.85;;
27684;SDS011;46113;50.130;8.526;2023-04-16T18:46:30;16.15;;;9.80;;
27684;SDS011;46113;50.130;8.526;2023-04-16T18:48:57;15.23;;;10.70;;
27684;SDS011;46113;50.130;8.526;2023-04-16T18:51:26;20.70;;;11.10;;
27684;SDS011;46113;50.130;8.526;2023-04-16T18:53:53;11.85;;;8.35;;
27684;SDS011;46113;50.130;8.526;2023-04-16T18:56:20;16.52;;;8.85;;
27684;SDS011;46113;50.130;8.526;2023-04-16T18:58:47;12.00;;;7.90;;
27684;SDS011;46113;50.130;8.526;2023-04-16T19:01:15;15.70;;;8.25;;
27684;SDS011;46113;50.130;8.526;2023-04-16T19:03:42;17.05;;;9.80;;
27684;SDS011;46113;50.130;8.526;2023-04-16T19:06:09;15.70;;;9.85;;
27684;SDS011;46113;50.130;8.526;2023-04-16T19:08:35;17.17;;;10.55;;
27684;SDS011;46113;50.130;8.526;2023-04-16T19:11:02;14.55;;;10.57;;
27684;SDS011;46113;50.130;8.526;2023-04-16T19:13:29;21.17;;;11.65;;
27684;SDS011;46113;50.130;8.526;2023-04-16T19:15:57;17.13;;;10.02;;
27684;SDS011;46113;50.130;8.526;2023-04-16T19:18:28;20.92;;;10.77;;
27684;SDS011;46113;50.130;8.526;2023-04-16T19:20:58;19.02;;;12.10;;
27684;SDS011;46113;50.130;8.526;2023-04-16T19:23:26;16.38;;;11.00;;
27684;SDS011;46113;50.130;8.526;2023-04-16T19:25:53;14.88;;;10.63;;
27684;SDS011;46113;50.130;8.526;2023-04-16T19:28:22;15.63;;;10.63;;
27684;SDS011;46113;50.130;8.526;2023-04-16T19:30:50;16.30;;;10.35;;
27684;SDS011;46113;50.130;8.526;2023-04-16T19:33:18;17.50;;;10.27;;
27684;SDS011;46113;50.130;8.526;2023-04-16T19:35:45;17.17;;;10.73;;
27684;SDS011;46113;50.130;8.526;2023-04-16T19:38:12;13.75;;;9.80;;
27684;SDS011;46113;50.130;8.526;2023-04-16T19:40:42;14.02;;;8.93;;
27684;SDS011;46113;50.130;8.526;2023-04-16T19:43:10;14.15;;;10.57;;
27684;SDS011;46113;50.130;8.526;2023-04-16T19:45:43;17.00;;;9.80;;
27684;SDS011;46113;50.130;8.526;2023-04-16T19:48:13;18.15;;;10.05;;
27684;SDS011;46113;50.130;8.526;2023-04-16T19:50:40;14.60;;;9.48;;
27684;SDS011;46113;50.130;8.526;2023-04-16T19:53:08;17.45;;;11.35;;
27684;SDS011;46113;50.130;8.526;2023-04-16T19:55:37;12.48;;;9.20;;
27684;SDS011;46113;50.130;8.526;2023-04-16T19:58:07;16.70;;;9.73;;
27684;SDS011;46113;50.130;8.526;2023-04-16T20:00:37;14.45;;;9.95;;
27684;SDS011;46113;50.130;8.526;2023-04-16T20:03:06;13.98;;;10.50;;
27684;SDS011;46113;50.130;8.526;2023-04-16T20:05:33;14.27;;;10.18;;
27684;SDS011;46113;50.130;8.526;2023-04-16T20:08:00;17.60;;;10.82;;
27684;SDS011;46113;50.130;8.526;2023-04-16T20:10:27;14.70;;;9.18;;
27684;SDS011;46113;50.130;8.526;2023-04-16T20:12:54;13.13;;;9.38;;
27684;SDS011;46113;50.130;8.526;2023-04-16T20:15:21;13.88;;;9.25;;
27684;SDS011;46113;50.130;8.526;2023-04-16T20:17:48;12.88;;;9.80;;
27684;SDS011;46113;50.130;8.526;2023-04-16T20:20:17;14.02;;;9.18;;
27684;SDS011;46113;50.130;8.526;2023-04-16T20:22:44;13.43;;;9.30;;
27684;SDS011;46113;50.130;8.526;2023-04-16T20:25:11;14.80;;;9.27;;
27684;SDS011;46113;50.130;8.526;2023-04-16T20:27:39;13.23;;;9.13;;
27684;SDS011;46113;50.130;8.526;2023-04-16T20:30:06;12.57;;;8.15;;
27684;SDS011;46113;50.130;8.526;2023-04-16T20:32:34;13.13;;;8.40;;
27684;SDS011;46113;50.130;8.526;2023-04-16T20:35:01;13.40;;;8.60;;
27684;SDS011;46113;50.130;8.526;2023-04-16T20:37:30;12.25;;;7.43;;
27684;SDS011;46113;50.130;8.526;2023-04-16T20:39:57;14.75;;;7.85;;
27684;SDS011;46113;50.130;8.526;2023-04-16T20:42:29;11.63;;;8.77;;
27684;SDS011;46113;50.130;8.526;2023-04-16T20:44:57;15.18;;;7.32;;
27684;SDS011;46113;50.130;8.526;2023-04-16T20:47:26;13.32;;;8.85;;
27684;SDS011;46113;50.130;8.526;2023-04-16T20:49:53;13.43;;;8.63;;
27684;SDS011;46113;50.130;8.526;2023-04-16T20:52:20;13.38;;;8.45;;
27684;SDS011;46113;50.130;8.526;2023-04-16T20:54:47;11.13;;;6.93;;
27684;SDS011;46113;50.130;8.526;2023-04-16T20:57:17;15.95;;;8.40;;
27684;SDS011;46113;50.130;8.526;2023-04-16T20:59:44;11.68;;;6.85;;
27684;SDS011;46113;50.130;8.526;2023-04-16T21:02:11;13.93;;;8.50;;
27684;SDS011;46113;50.130;8.526;2023-04-16T21:04:38;12.77;;;7.97;;
27684;SDS011;46113;50.130;8.526;2023-04-16T21:07:05;13.18;;;7.57;;
27684;SDS011;46113;50.130;8.526;2023-04-16T21:09:31;12.77;;;8.48;;
27684;SDS011;46113;50.130;8.526;2023-04-16T21:11:58;12.73;;;7.43;;
27684;SDS011;46113;50.130;8.526;2023-04-16T21:14:25;10.13;;;6.93;;
27684;SDS011;46113;50.130;8.526;2023-04-16T21:16:52;13.82;;;7.53;;
27684;SDS011;46113;50.130;8.526;2023-04-16T21:19:22;13.10;;;7.97;;
27684;SDS011;46113;50.130;8.526;2023-04-16T21:21:49;12.82;;;7.88;;
27684;SDS011;46113;50.130;8.526;2023-04-16T21:24:16;14.18;;;8.48;;
27684;SDS011;46113;50.130;8.526;2023-04-16T21:26:43;14.88;;;8.13;;
27684;SDS011;46113;50.130;8.526;2023-04-16T21:29:09;13.40;;;8.98;;
27684;SDS011;46113;50.130;8.526;2023-04-16T21:31:37;15.70;;;9.93;;
27684;SDS011;46113;50.130;8.526;2023-04-16T21:34:04;16.63;;;9.90;;
27684;SDS011;46113;50.130;8.526;2023-04-16T21:36:31;15.85;;;8.85;;
27684;SDS011;46113;50.130;8.526;2023-04-16T21:38:59;14.18;;;9.05;;
27684;SDS011;46113;50.130;8.526;2023-04-16T21:41:26;17.02;;;8.85;;
27684;SDS011;46113;50.130;8.526;2023-04-16T21:43:53;12.07;;;8.40;;
27684;SDS011;46113;50.130;8.526;2023-04-16T21:46:22;12.85;;;8.25;;
27684;SDS011;46113;50.130;8.526;2023-04-16T21:48:50;10.38;;;6.50;;
27684;SDS011;46113;50.130;8.526;2023-04-16T21:51:18;11.25;;;6.40;;
27684;SDS011;46113;50.130;8.526;2023-04-16T21:53:45;15.02;;;10.13;;
27684;SDS011;46113;50.130;8.526;2023-04-16T21:56:12;14.45;;;9.13;;
27684;SDS011;46113;50.130;8.526;2023-04-16T21:58:40;13.10;;;9.25;;
27684;SDS011;46113;50.130;8.526;2023-04-16T22:01:07;13.20;;;8.02;;
27684;SDS011;46113;50.130;8.526;2023-04-16T22:03:36;16.88;;;9.63;;
27684;SDS011;46113;50.130;8.526;2023-04-16T22:06:06;13.20;;;8.75;;
27684;SDS011;46113;50.130;8.526;2023-04-16T22:08:33;14.07;;;8.95;;
27684;SDS011;46113;50.130;8.526;2023-04-16T22:11:01;14.02;;;8.07;;
27684;SDS011;46113;50.130;8.526;2023-04-16T22:13:28;12.32;;;7.18;;
27684;SDS011;46113;50.130;8.526;2023-04-16T22:15:58;12.00;;;7.53;;
27684;SDS011;46113;50.130;8.526;2023-04-16T22:18:26;13.75;;;7.57;;
27684;SDS011;46113;50.130;8.526;2023-04-16T22:20:54;12.50;;;7.22;;
27684;SDS011;46113;50.130;8.526;2023-04-16T22:23:24;12.57;;;8.02;;
27684;SDS011;46113;50.130;8.526;2023-04-16T22:25:52;14.23;;;8.05;;
27684;SDS011;46113;50.130;8.526;2023-04-16T22:28:20;12.13;;;7.72;;
27684;SDS011;46113;50.130;8.526;2023-04-16T22:30:47;12.07;;;7.57;;
27684;SDS011;46113;50.130;8.526;2023-04-16T22:33:14;17.83;;;8.00;;
27684;SDS011;46113;50.130;8.526;2023-04-16T22:35:41;12.25;;;7.75;;
27684;SDS011;46113;50.130;8.526;2023-04-16T22:38:08;11.52;;;6.82;;
27684;SDS011;46113;50.130;8.526;2023-04-16T22:40:35;11.43;;;7.43;;
27684;SDS011;46113;50.130;8.526;2023-04-16T22:43:02;12.50;;;6.53;;
27684;SDS011;46113;50.130;8.526;2023-04-16T22:45:29;12.10;;;7.22;;
27684;SDS011;46113;50.130;8.526;2023-04-16T22:47:57;10.27;;;6.68;;
27684;SDS011;46113;50.130;8.526;2023-04-16T22:50:24;11.02;;;6.55;;
27684;SDS011;46113;50.130;8.526;2023-04-16T22:52:50;11.32;;;6.72;;
27684;SDS011;46113;50.130;8.526;2023-04-16T22:55:17;13.23;;;7.47;;
27684;SDS011;46113;50.130;8.526;2023-04-16T22:57:44;14.30;;;7.40;;
27684;SDS011;46113;50.130;8.526;2023-04-16T23:00:13;9.68;;;6.97;;
27684;SDS011;46113;50.130;8.526;2023-04-16T23:02:43;12.95;;;8.52;;
27684;SDS011;46113;50.130;8.526;2023-04-16T23:05:11;12.50;;;8.13;;
27684;SDS011;46113;50.130;8.526;2023-04-16T23:07:37;10.75;;;6.82;;
27684;SDS011;46113;50.130;8.526;2023-04-16T23:10:04;10.85;;;6.68;;
27684;SDS011;46113;50.130;8.526;2023-04-16T23:12:33;11.63;;;7.00;;
27684;SDS011;46113;50.130;8.526;2023-04-16T23:15:03;13.38;;;7.43;;
27684;SDS011;46113;50.130;8.526;2023-04-16T23:17:32;10.85;;;7.68;;
27684;SDS011;46113;50.130;8.526;2023-04-16T23:20:02;14.38;;;8.10;;
27684;SDS011;46113;50.130;8.526;2023-04-16T23:22:33;11.45;;;7.03;;
27684;SDS011;46113;50.130;8.526;2023-04-16T23:25:00;11.35;;;7.30;;
27684;SDS011;46113;50.130;8.526;2023-04-16T23:27:27;14.05;;;7.53;;
27684;SDS011;46113;50.130;8.526;2023-04-16T23:29:54;12.23;;;7.43;;
27684;SDS011;46113;50.130;8.526;2023-04-16T23:32:21;13.98;;;7.88;;
27684;SDS011;46113;50.130;8.526;2023-04-16T23:34:48;11.02;;;7.32;;
27684;SDS011;46113;50.130;8.526;2023-04-16T23:37:14;12.15;;;7.45;;
27684;SDS011;46113;50.130;8.526;2023-04-16T23:39:42;9.38;;;6.22;;
27684;SDS011;46113;50.130;8.526;2023-04-16T23:42:09;10.73;;;7.05;;
27684;SDS011;46113;50.130;8.526;2023-04-16T23:44:36;12.40;;;6.55;;
27684;SDS011;46113;50.130;8.526;2023-04-16T23:47:02;11.73;;;7.75;;
27684;SDS011;46113;50.130;8.526;2023-04-16T23:49:30;10.75;;;6.28;;
27684;SDS011;46113;50.130;8.526;2023-04-16T23:51:57;11.55;;;7.57;;
27684;SDS011;46113;50.130;8.526;2023-04-16T23:54:24;10.35;;;6.75;;
27684;SDS011;46113;50.130;8.526;2023-04-16T23:56:50;10.65;;;7.35;;
27684;SDS011;46113;50.130;8.526;2023-04-16T23:59:17;8.95;;;6.88;;
